createdAt,value
2022-09-17T00:01:31.185Z,3.10
2022-09-17T00:04:04.067Z,3.27
2022-09-17T00:06:33.679Z,3.33
2022-09-17T00:09:03.336Z,3.07
2022-09-17T00:11:33.935Z,3.10
2022-09-17T00:14:03.934Z,3.03
2022-09-17T00:16:34.278Z,3.17
2022-09-17T00:19:03.536Z,2.97
2022-09-17T00:21:31.686Z,3.47
2022-09-17T00:24:03.763Z,2.73
2022-09-17T00:26:33.300Z,3.00
2022-09-17T00:29:02.155Z,2.93
2022-09-17T00:31:31.177Z,3.00
2022-09-17T00:34:00.451Z,3.03
2022-09-17T00:36:29.059Z,2.80
2022-09-17T00:38:59.443Z,2.70
2022-09-17T00:41:31.188Z,3.10
2022-09-17T00:44:00.864Z,2.90
2022-09-17T00:46:36.756Z,3.10
2022-09-17T00:49:08.351Z,3.00
2022-09-17T00:51:40.446Z,2.80
2022-09-17T00:54:11.619Z,3.20
2022-09-17T00:56:43.537Z,2.90
2022-09-17T00:59:12.164Z,3.17
2022-09-17T01:01:40.258Z,2.97
2022-09-17T01:04:16.654Z,2.63
2022-09-17T01:06:54.746Z,3.37
2022-09-17T01:09:30.119Z,3.20
2022-09-17T01:12:16.669Z,3.17
2022-09-17T01:15:01.353Z,3.07
2022-09-17T01:17:35.730Z,3.23
2022-09-17T01:20:37.212Z,3.10
2022-09-17T01:23:26.600Z,3.20
2022-09-17T01:26:09.710Z,3.30
2022-09-17T01:28:46.619Z,3.07
2022-09-17T01:31:31.582Z,3.00
2022-09-17T01:34:04.666Z,3.00
2022-09-17T01:36:43.915Z,3.23
2022-09-17T01:39:21.699Z,3.30
2022-09-17T01:41:55.251Z,3.30
2022-09-17T01:44:29.311Z,3.30
2022-09-17T01:47:05.892Z,3.10
2022-09-17T01:49:37.921Z,3.00
2022-09-17T01:52:08.391Z,3.10
2022-09-17T01:54:42.547Z,2.90
2022-09-17T01:57:18.374Z,3.00
2022-09-17T01:59:51.868Z,3.13
2022-09-17T02:02:28.075Z,3.27
2022-09-17T02:05:00.526Z,3.13
2022-09-17T02:07:29.925Z,3.10
2022-09-17T02:10:03.817Z,2.90
2022-09-17T02:12:38.128Z,3.03
2022-09-17T02:15:11.224Z,2.63
2022-09-17T02:17:47.456Z,2.93
2022-09-17T02:20:20.847Z,3.00
2022-09-17T02:22:57.739Z,2.93
2022-09-17T02:25:32.389Z,2.97
2022-09-17T02:28:05.054Z,3.03
2022-09-17T02:30:33.328Z,3.20
2022-09-17T02:33:06.203Z,3.47
2022-09-17T02:35:34.878Z,2.97
2022-09-17T02:38:03.208Z,3.03
2022-09-17T02:40:36.536Z,3.10
2022-09-17T02:43:15.052Z,2.70
2022-09-17T02:45:55.132Z,3.17
2022-09-17T02:48:44.918Z,3.30
2022-09-17T02:51:25.170Z,3.10
2022-09-17T02:54:01.645Z,2.83
2022-09-17T02:56:41.545Z,2.63
2022-09-17T02:59:16.795Z,3.20
2022-09-17T03:01:50.154Z,4.60
2022-09-17T03:04:23.159Z,4.40
2022-09-17T03:06:54.094Z,4.53
2022-09-17T03:09:22.207Z,4.83
2022-09-17T03:11:50.404Z,3.90
2022-09-17T03:14:20.758Z,3.47
2022-09-17T03:16:49.100Z,2.87
2022-09-17T03:19:17.272Z,3.13
2022-09-17T03:21:46.833Z,3.00
2022-09-17T03:24:14.948Z,3.23
2022-09-17T03:26:43.048Z,3.30
2022-09-17T03:29:11.203Z,3.03
2022-09-17T03:31:39.369Z,2.87
2022-09-17T03:34:07.758Z,3.07
2022-09-17T03:36:36.291Z,3.50
2022-09-17T03:39:06.085Z,3.20
2022-09-17T03:41:34.232Z,3.03
2022-09-17T03:44:02.830Z,3.20
2022-09-17T03:46:31.099Z,3.07
2022-09-17T03:48:59.233Z,3.33
2022-09-17T03:51:27.514Z,3.20
2022-09-17T03:53:55.647Z,2.83
2022-09-17T03:56:26.711Z,3.50
2022-09-17T03:58:59.719Z,3.50
2022-09-17T04:01:29.075Z,3.20
2022-09-17T04:03:57.608Z,3.10
2022-09-17T04:06:26.208Z,3.17
2022-09-17T04:08:54.370Z,2.80
2022-09-17T04:11:23.896Z,3.27
2022-09-17T04:13:52.004Z,3.30
2022-09-17T04:16:20.200Z,4.20
2022-09-17T04:18:48.424Z,3.80
2022-09-17T04:21:16.511Z,3.40
2022-09-17T04:23:44.646Z,3.67
2022-09-17T04:26:12.807Z,3.40
2022-09-17T04:28:42.322Z,5.37
2022-09-17T04:31:10.510Z,5.50
2022-09-17T04:33:38.709Z,37.43
2022-09-17T04:36:06.874Z,13.13
2022-09-17T04:38:34.943Z,5.57
2022-09-17T04:41:03.088Z,5.33
2022-09-17T04:43:31.241Z,5.00
2022-09-17T04:46:00.696Z,4.13
2022-09-17T04:48:29.025Z,4.23
2022-09-17T04:50:57.137Z,3.70
2022-09-17T04:53:25.391Z,3.67
2022-09-17T04:55:53.645Z,3.93
2022-09-17T04:58:21.771Z,3.83
2022-09-17T05:00:49.984Z,3.77
2022-09-17T05:03:19.560Z,3.17
2022-09-17T05:05:47.709Z,3.67
2022-09-17T05:08:15.919Z,3.63
2022-09-17T05:10:44.135Z,3.60
2022-09-17T05:13:12.215Z,3.97
2022-09-17T05:15:40.514Z,4.27
2022-09-17T05:18:08.770Z,3.70
2022-09-17T05:20:38.760Z,3.30
2022-09-17T05:23:06.936Z,3.37
2022-09-17T05:25:35.531Z,3.30
2022-09-17T05:28:04.105Z,3.03
2022-09-17T05:30:32.434Z,3.20
2022-09-17T05:33:02.168Z,3.37
2022-09-17T05:35:30.859Z,3.07
2022-09-17T05:38:01.979Z,3.00
2022-09-17T05:40:30.851Z,2.83
2022-09-17T05:43:02.845Z,3.10
2022-09-17T05:45:31.045Z,3.20
2022-09-17T05:48:00.640Z,2.50
2022-09-17T05:50:30.190Z,2.50
2022-09-17T05:52:58.549Z,2.63
2022-09-17T05:55:28.001Z,2.50
2022-09-17T05:57:56.151Z,2.60
2022-09-17T06:00:24.254Z,2.70
2022-09-17T06:02:56.238Z,2.60
2022-09-17T06:05:24.554Z,2.33
2022-09-17T06:07:52.789Z,2.60
2022-09-17T06:10:21.026Z,2.20
2022-09-17T06:12:56.072Z,2.10
2022-09-17T06:15:24.190Z,1.93
2022-09-17T06:17:52.711Z,2.23
2022-09-17T06:20:21.344Z,2.17
2022-09-17T06:22:49.547Z,2.20
2022-09-17T06:25:17.743Z,2.03
2022-09-17T06:27:45.980Z,2.07
2022-09-17T06:30:15.570Z,2.30
2022-09-17T06:32:43.763Z,2.50
2022-09-17T06:35:11.856Z,2.87
2022-09-17T06:37:40.952Z,2.40
2022-09-17T06:40:10.634Z,2.30
2022-09-17T06:42:38.764Z,2.40
2022-09-17T06:45:11.104Z,2.00
2022-09-17T06:47:42.986Z,2.03
2022-09-17T06:50:11.393Z,2.10
2022-09-17T06:52:39.762Z,1.73
2022-09-17T06:55:08.397Z,2.30
2022-09-17T06:57:36.478Z,2.20
2022-09-17T07:00:05.107Z,2.00
2022-09-17T07:02:33.303Z,2.17
2022-09-17T07:05:03.146Z,2.17
2022-09-17T07:07:31.429Z,2.13
2022-09-17T07:09:59.596Z,1.87
2022-09-17T07:12:27.789Z,1.80
2022-09-17T07:14:55.945Z,1.87
2022-09-17T07:17:24.308Z,2.00
2022-09-17T07:19:52.572Z,2.23
2022-09-17T07:22:22.063Z,1.97
2022-09-17T07:24:50.168Z,2.23
2022-09-17T07:27:18.545Z,2.10
2022-09-17T07:29:46.648Z,2.17
2022-09-17T07:32:14.758Z,2.57
2022-09-17T07:34:42.916Z,2.50
2022-09-17T07:37:10.989Z,2.50
2022-09-17T07:39:40.965Z,2.40
2022-09-17T07:42:09.295Z,2.60
2022-09-17T07:44:37.422Z,2.67
2022-09-17T07:47:05.931Z,2.53
2022-09-17T07:49:34.025Z,2.50
2022-09-17T07:52:06.331Z,2.60
2022-09-17T07:54:34.603Z,2.50
2022-09-17T07:57:04.349Z,2.80
2022-09-17T07:59:32.820Z,2.50
2022-09-17T08:02:06.619Z,2.37
2022-09-17T08:04:35.117Z,2.47
2022-09-17T08:07:03.266Z,2.60
2022-09-17T08:09:31.481Z,2.93
2022-09-17T08:11:59.707Z,2.57
2022-09-17T08:14:30.071Z,2.80
2022-09-17T08:16:58.438Z,2.57
2022-09-17T08:19:26.979Z,2.57
2022-09-17T08:21:55.098Z,2.40
2022-09-17T08:24:26.598Z,2.43
2022-09-17T08:26:54.834Z,2.60
2022-09-17T08:29:22.989Z,2.73
2022-09-17T08:31:52.564Z,2.87
2022-09-17T08:34:20.767Z,2.60
2022-09-17T08:36:48.964Z,2.30
2022-09-17T08:39:18.127Z,2.30
2022-09-17T08:41:59.038Z,1.97
2022-09-17T08:44:30.885Z,1.80
2022-09-17T08:47:06.437Z,1.93
2022-09-17T08:49:37.193Z,2.10
2022-09-17T08:52:32.080Z,2.50
2022-09-17T08:55:08.263Z,2.10
2022-09-17T08:57:43.995Z,2.07
2022-09-17T09:00:14.914Z,2.30
2022-09-17T09:03:01.175Z,2.30
2022-09-17T09:05:33.233Z,2.30
2022-09-17T09:08:07.637Z,2.23
2022-09-17T09:10:47.565Z,1.90
2022-09-17T09:13:19.530Z,2.07
2022-09-17T09:15:53.142Z,1.90
2022-09-17T09:18:24.538Z,2.00
2022-09-17T09:20:55.659Z,1.80
2022-09-17T09:23:33.967Z,2.13
2022-09-17T09:26:10.636Z,1.70
2022-09-17T09:28:54.700Z,2.10
2022-09-17T09:31:48.658Z,1.67
2022-09-17T09:34:18.904Z,1.70
2022-09-17T09:36:47.445Z,1.80
2022-09-17T09:39:20.265Z,2.03
2022-09-17T09:41:54.224Z,2.10
2022-09-17T09:44:25.214Z,2.00
2022-09-17T09:47:26.395Z,1.77
2022-09-17T09:50:09.879Z,1.87
2022-09-17T09:52:52.661Z,2.00
2022-09-17T09:55:43.970Z,2.37
2022-09-17T09:58:21.156Z,2.53
2022-09-17T10:00:52.495Z,2.53
2022-09-17T10:03:23.501Z,3.00
2022-09-17T10:05:59.907Z,1.83
2022-09-17T10:08:29.461Z,2.70
2022-09-17T10:11:00.989Z,1.53
2022-09-17T10:13:30.468Z,1.30
2022-09-17T10:16:05.849Z,1.30
2022-09-17T10:18:34.039Z,1.40
2022-09-17T10:21:03.515Z,1.20
2022-09-17T10:23:37.724Z,1.30
2022-09-17T10:26:08.288Z,1.10
2022-09-17T10:28:51.236Z,1.27
2022-09-17T10:31:23.880Z,1.27
2022-09-17T10:33:56.388Z,1.47
2022-09-17T10:36:41.257Z,1.20
2022-09-17T10:39:21.249Z,1.30
2022-09-17T10:41:55.787Z,1.27
2022-09-17T10:44:25.529Z,1.17
2022-09-17T10:46:54.587Z,1.20
2022-09-17T10:49:36.286Z,1.60
2022-09-17T10:52:14.271Z,1.30
2022-09-17T10:55:10.710Z,1.33
2022-09-17T10:58:03.154Z,1.30
2022-09-17T11:00:42.734Z,1.30
2022-09-17T11:03:42.668Z,1.40
2022-09-17T11:06:35.074Z,1.40
2022-09-17T11:09:15.543Z,1.37
2022-09-17T11:11:55.257Z,1.37
2022-09-17T11:14:41.580Z,1.10
2022-09-17T11:17:19.802Z,1.00
2022-09-17T11:19:59.016Z,1.13
2022-09-17T11:22:34.819Z,1.10
2022-09-17T11:25:25.314Z,1.10
2022-09-17T11:28:02.854Z,1.17
2022-09-17T11:30:40.925Z,0.90
2022-09-17T11:33:36.612Z,0.80
2022-09-17T11:36:13.539Z,0.90
2022-09-17T11:38:46.283Z,1.00
2022-09-17T11:41:20.129Z,1.00
2022-09-17T11:43:54.152Z,1.10
2022-09-17T11:46:25.894Z,0.93
2022-09-17T11:48:59.255Z,0.80
2022-09-17T11:51:32.527Z,1.23
2022-09-17T11:54:06.694Z,1.03
2022-09-17T11:56:41.324Z,1.10
2022-09-17T11:59:16.814Z,1.00
2022-09-17T12:01:48.803Z,1.50
2022-09-17T12:04:31.234Z,1.00
2022-09-17T12:07:03.623Z,1.17
2022-09-17T12:09:37.944Z,1.30
2022-09-17T12:12:26.324Z,1.20
2022-09-17T12:15:04.583Z,1.10
2022-09-17T12:17:38.627Z,0.80
2022-09-17T12:20:12.605Z,1.03
2022-09-17T12:22:44.297Z,0.90
2022-09-17T12:25:14.370Z,0.80
2022-09-17T12:27:54.177Z,1.00
2022-09-17T12:30:26.159Z,1.17
2022-09-17T12:33:14.937Z,1.10
2022-09-17T12:36:11.081Z,1.20
2022-09-17T12:39:15.765Z,1.20
2022-09-17T12:41:52.732Z,1.23
2022-09-17T12:44:35.599Z,1.33
2022-09-17T12:47:18.050Z,1.20
2022-09-17T12:50:07.673Z,1.27
2022-09-17T12:52:47.424Z,1.10
2022-09-17T12:55:37.775Z,1.00
2022-09-17T12:58:16.645Z,1.10
2022-09-17T13:00:50.359Z,1.47
2022-09-17T13:03:23.779Z,1.80
2022-09-17T13:06:19.975Z,1.87
2022-09-17T13:09:17.020Z,2.10
2022-09-17T13:12:07.707Z,2.00
2022-09-17T13:15:07.384Z,1.80
2022-09-17T13:18:12.351Z,1.47
2022-09-17T13:20:44.783Z,1.43
2022-09-17T13:23:14.087Z,1.00
2022-09-17T13:25:53.143Z,1.27
2022-09-17T13:28:21.281Z,1.27
2022-09-17T13:31:00.921Z,1.20
2022-09-17T13:33:55.986Z,1.20
2022-09-17T13:36:45.611Z,1.20
2022-09-17T13:39:47.182Z,1.20
2022-09-17T13:42:21.002Z,1.17
2022-09-17T13:44:54.440Z,1.43
2022-09-17T13:47:27.234Z,1.20
2022-09-17T13:50:02.226Z,1.20
2022-09-17T13:52:36.488Z,1.30
2022-09-17T13:55:06.743Z,1.40
2022-09-17T13:57:47.307Z,1.30
2022-09-17T14:00:49.676Z,1.63
2022-09-17T14:03:56.831Z,1.30
2022-09-17T14:06:50.296Z,1.60
2022-09-17T14:09:52.196Z,1.40
2022-09-17T14:12:52.309Z,1.63
2022-09-17T14:15:53.170Z,1.50
2022-09-17T14:18:39.118Z,1.40
2022-09-17T14:21:14.467Z,1.23
2022-09-17T14:23:51.832Z,1.30
2022-09-17T14:26:34.340Z,1.83
2022-09-17T14:29:08.600Z,1.47
2022-09-17T14:31:38.529Z,1.60
2022-09-17T14:34:07.548Z,1.43
2022-09-17T14:36:40.223Z,1.50
2022-09-17T14:39:17.582Z,1.70
2022-09-17T14:41:46.492Z,1.80
2022-09-17T14:44:19.223Z,1.70
2022-09-17T14:46:53.219Z,1.73
2022-09-17T14:49:23.727Z,1.60
2022-09-17T14:51:52.380Z,1.80
2022-09-17T14:54:24.830Z,1.50
2022-09-17T14:56:56.058Z,1.90
2022-09-17T14:59:29.769Z,1.87
2022-09-17T15:01:58.231Z,1.93
2022-09-17T15:04:28.010Z,1.67
2022-09-17T15:07:08.495Z,1.90
2022-09-17T15:09:38.264Z,1.80
2022-09-17T15:12:08.152Z,2.23
2022-09-17T15:14:39.833Z,1.70
2022-09-17T15:17:14.802Z,2.03
2022-09-17T15:19:48.083Z,2.13
2022-09-17T15:22:21.685Z,2.20
2022-09-17T15:24:55.176Z,2.30
2022-09-17T15:27:27.780Z,2.30
2022-09-17T15:30:00.111Z,2.80
2022-09-17T15:32:28.370Z,2.40
2022-09-17T15:35:29.235Z,2.27
2022-09-17T15:40:49.191Z,7.97
2022-09-17T15:43:23.056Z,5.57
2022-09-17T15:45:51.476Z,3.33
2022-09-17T15:48:34.830Z,3.63
2022-09-17T15:51:05.010Z,5.33
2022-09-17T15:53:34.089Z,6.23
2022-09-17T15:56:16.405Z,4.63
2022-09-17T15:58:55.515Z,3.70
2022-09-17T16:01:53.586Z,3.10
2022-09-17T16:04:36.214Z,3.57
2022-09-17T16:07:29.682Z,2.83
2022-09-17T16:09:59.390Z,3.70
2022-09-17T16:12:30.051Z,5.73
2022-09-17T16:15:00.745Z,11.37
2022-09-17T16:17:43.853Z,14.63
2022-09-17T16:20:18.219Z,8.80
2022-09-17T16:22:48.194Z,10.43
2022-09-17T16:25:17.187Z,7.00
2022-09-17T16:27:51.374Z,12.97
2022-09-17T16:30:21.611Z,8.50
2022-09-17T16:32:50.152Z,7.37
2022-09-17T16:35:20.599Z,9.00
2022-09-17T16:37:50.329Z,6.47
2022-09-17T16:40:19.046Z,20.10
2022-09-17T16:42:48.916Z,10.17
2022-09-17T16:45:17.498Z,10.57
2022-09-17T16:47:45.674Z,9.43
2022-09-17T16:50:16.354Z,10.13
2022-09-17T16:52:44.976Z,7.30
2022-09-17T16:55:15.147Z,7.13
2022-09-17T16:57:43.641Z,5.93
2022-09-17T17:00:16.488Z,5.50
2022-09-17T17:02:44.895Z,6.23
2022-09-17T17:05:13.119Z,5.27
2022-09-17T17:07:41.620Z,5.97
2022-09-17T17:10:10.534Z,6.13
2022-09-17T17:12:39.487Z,6.53
2022-09-17T17:15:10.283Z,5.90
2022-09-17T17:17:40.081Z,6.60
2022-09-17T17:20:09.908Z,6.67
2022-09-17T17:22:38.357Z,7.93
2022-09-17T17:25:07.329Z,7.70
2022-09-17T17:27:36.349Z,7.97
2022-09-17T17:30:06.605Z,11.70
2022-09-17T17:32:35.171Z,12.17
2022-09-17T17:35:05.737Z,11.23
2022-09-17T17:37:33.831Z,11.83
2022-09-17T17:40:05.455Z,10.80
2022-09-17T17:42:38.076Z,12.00
2022-09-17T17:45:07.501Z,12.27
2022-09-17T17:47:35.910Z,11.57
2022-09-17T17:50:06.249Z,11.30
2022-09-17T17:52:34.410Z,10.80
2022-09-17T17:55:02.713Z,10.40
2022-09-17T17:57:31.154Z,10.50
2022-09-17T18:00:01.362Z,10.50
2022-09-17T18:02:31.926Z,11.70
2022-09-17T18:05:04.122Z,11.10
2022-09-17T18:07:34.185Z,11.77
2022-09-17T18:10:02.368Z,13.43
2022-09-17T18:12:30.538Z,16.47
2022-09-17T18:14:58.885Z,15.97
2022-09-17T18:17:27.007Z,15.83
2022-09-17T18:19:56.377Z,16.27
2022-09-17T18:22:24.607Z,14.20
2022-09-17T18:24:54.075Z,12.80
2022-09-17T18:27:22.191Z,12.83
2022-09-17T18:29:50.387Z,11.83
2022-09-17T18:32:18.728Z,11.30
2022-09-17T18:34:51.538Z,11.00
2022-09-17T18:37:19.831Z,12.23
2022-09-17T18:39:59.582Z,12.17
2022-09-17T18:42:29.367Z,11.97
2022-09-17T18:44:57.671Z,11.77
2022-09-17T18:47:28.258Z,12.10
2022-09-17T18:49:56.339Z,11.33
2022-09-17T18:52:24.509Z,11.97
2022-09-17T18:54:52.699Z,11.93
2022-09-17T18:57:20.903Z,12.80
2022-09-17T18:59:50.918Z,12.10
2022-09-17T19:02:19.417Z,11.93
2022-09-17T19:04:48.646Z,12.80
2022-09-17T19:07:16.944Z,12.67
2022-09-17T19:09:45.119Z,12.87
2022-09-17T19:12:13.256Z,12.90
2022-09-17T19:14:41.502Z,12.33
2022-09-17T19:17:11.050Z,13.80
2022-09-17T19:19:46.537Z,15.60
2022-09-17T19:22:14.668Z,16.50
2022-09-17T19:24:42.795Z,17.43
2022-09-17T19:27:11.176Z,22.57
2022-09-17T19:29:39.776Z,21.27
2022-09-17T19:32:07.896Z,19.23
2022-09-17T19:34:37.433Z,19.63
2022-09-17T19:37:05.966Z,19.50
2022-09-17T19:39:34.491Z,18.87
2022-09-17T19:42:03.032Z,18.77
2022-09-17T19:44:31.431Z,18.90
2022-09-17T19:47:01.983Z,17.63
2022-09-17T19:49:30.084Z,17.23
2022-09-17T19:51:59.560Z,15.23
2022-09-17T19:54:27.758Z,15.10
2022-09-17T19:56:55.957Z,14.27
2022-09-17T19:59:24.137Z,14.23
2022-09-17T20:01:52.365Z,14.03
2022-09-17T20:04:20.514Z,13.17
2022-09-17T20:06:48.600Z,13.77
2022-09-17T20:09:18.173Z,12.87
2022-09-17T20:11:46.313Z,12.57
2022-09-17T20:14:15.005Z,12.77
2022-09-17T20:16:44.976Z,13.70
2022-09-17T20:19:16.619Z,13.47
2022-09-17T20:21:44.816Z,13.67
2022-09-17T20:24:13.124Z,13.90
2022-09-17T20:26:42.653Z,14.00
2022-09-17T20:29:10.758Z,15.10
2022-09-17T20:31:41.554Z,14.37
2022-09-17T20:34:12.318Z,14.60
2022-09-17T20:36:40.482Z,14.47
2022-09-17T20:39:22.450Z,13.87
2022-09-17T20:41:52.459Z,14.37
2022-09-17T20:44:20.778Z,12.90
2022-09-17T20:46:51.205Z,12.50
2022-09-17T20:49:19.385Z,13.00
2022-09-17T20:51:47.556Z,13.40
2022-09-17T20:54:15.944Z,12.57
2022-09-17T20:56:44.080Z,12.57
2022-09-17T20:59:18.616Z,12.77
2022-09-17T21:01:50.062Z,12.33
2022-09-17T21:04:20.466Z,12.40
2022-09-17T21:06:52.175Z,12.40
2022-09-17T21:09:20.546Z,11.80
2022-09-17T21:11:49.677Z,11.80
2022-09-17T21:14:20.592Z,13.37
2022-09-17T21:16:48.996Z,12.87
2022-09-17T21:19:17.457Z,12.70
2022-09-17T21:21:46.033Z,13.00
2022-09-17T21:24:14.180Z,12.40
2022-09-17T21:26:42.554Z,12.70
2022-09-17T21:29:10.769Z,12.30
2022-09-17T21:31:40.585Z,11.63
2022-09-17T21:34:12.432Z,11.87
2022-09-17T21:36:43.405Z,11.43
2022-09-17T21:39:14.437Z,11.33
2022-09-17T21:41:43.145Z,11.60
2022-09-17T21:44:12.329Z,11.80
2022-09-17T21:46:43.432Z,11.97
2022-09-17T21:49:13.397Z,12.33
2022-09-17T21:51:43.377Z,11.53
2022-09-17T21:54:13.675Z,12.03
2022-09-17T21:56:41.852Z,10.73
2022-09-17T21:59:13.115Z,10.67
2022-09-17T22:01:46.576Z,10.73
2022-09-17T22:04:16.682Z,10.07
2022-09-17T22:06:45.838Z,10.23
2022-09-17T22:09:16.255Z,11.27
2022-09-17T22:11:45.293Z,10.03
2022-09-17T22:14:15.614Z,11.33
2022-09-17T22:16:46.526Z,10.27
2022-09-17T22:19:17.082Z,9.60
2022-09-17T22:21:47.356Z,10.30
2022-09-17T22:24:17.273Z,9.93
2022-09-17T22:26:47.551Z,9.57
2022-09-17T22:29:17.691Z,10.10
2022-09-17T22:31:48.142Z,10.23
2022-09-17T22:34:18.326Z,9.53
2022-09-17T22:36:47.150Z,9.97
2022-09-17T22:39:15.379Z,9.30
2022-09-17T22:41:45.568Z,9.30
2022-09-17T22:44:16.721Z,9.80
2022-09-17T22:46:47.778Z,9.17
2022-09-17T22:49:16.235Z,9.03
2022-09-17T22:51:45.121Z,9.27
2022-09-17T22:54:14.544Z,9.17
2022-09-17T22:56:43.267Z,8.37
2022-09-17T22:59:11.606Z,8.53
2022-09-17T23:01:40.722Z,8.63
2022-09-17T23:04:10.664Z,8.43
2022-09-17T23:06:41.967Z,8.27
2022-09-17T23:09:10.333Z,8.87
2022-09-17T23:11:39.998Z,7.90
2022-09-17T23:14:09.785Z,8.27
2022-09-17T23:16:39.688Z,8.43
2022-09-17T23:19:09.319Z,8.07
2022-09-17T23:21:39.149Z,7.67
2022-09-17T23:24:07.647Z,8.53
2022-09-17T23:26:35.736Z,8.07
2022-09-17T23:29:05.608Z,8.43
2022-09-17T23:31:35.686Z,8.63
2022-09-17T23:34:05.111Z,7.13
2022-09-17T23:36:36.546Z,8.10
2022-09-17T23:39:06.460Z,7.83
2022-09-17T23:41:36.534Z,7.50
2022-09-17T23:44:10.702Z,6.80
2022-09-17T23:46:42.316Z,7.30
2022-09-17T23:49:12.199Z,7.20
2022-09-17T23:51:42.136Z,7.43
2022-09-17T23:54:10.896Z,7.53
2022-09-17T23:56:39.026Z,7.20
2022-09-17T23:59:08.497Z,7.27
